Flight Track Log - Related Links

Times and Time Zones

All times are in EDT time to prevent confusion due to time zone crossing. See the CTL13 flight status page for this flight to view local times or setup timezone preferences in your user account.


Time Position Orientation Groundspeed Altitude Reporting Facility
EDT Latitude Longitude Course Direction KTS MPH feet Rate Location/Type
Fri 11:01:31 PM 41.8000 -87.7667 90° East 163 188 1,800  Level Chicago TRACON
Fri 11:02:32 PM 41.8000 -87.7167 90° East 149 171 2,800 764 Climbing Chicago TRACON
Fri 11:03:21 PM 41.8064 -87.6772 78° East 149 171 3,200 663 Climbing Chicago Center
Fri 11:05:24 PM 41.8108 -87.5381 88° East 167 192 4,700 587 Climbing Chicago Center
Fri 11:06:25 PM 41.8158 -87.4725 84° East 173 199 5,000 98 Climbing Chicago Center
Fri 11:07:27 PM 41.8158 -87.3958 90° East 188 216 4,900  Descending Chicago Center
Fri 11:08:28 PM 41.8108 -87.3178 95° East 216 249 5,000 246 Climbing Chicago Center
Fri 11:09:29 PM 41.8094 -87.2428 91° East 211 243 5,400 492 Climbing Chicago Center
Fri 11:10:30 PM 41.8067 -87.1736 93° East 194 223 6,000 244 Climbing Chicago Center
Fri 11:11:32 PM 41.8044 -87.0861 92° East 196 226 5,900  Descending Chicago Center
Fri 11:12:33 PM 41.8011 -87.0094 93° East 204 235 6,000 98 Climbing Chicago Center
Fri 11:13:34 PM 41.8083 -86.9397 82° East 196 226 6,100 492 Climbing Chicago Center
Fri 11:14:35 PM 41.8414 -86.8964 44° Northeast 169 194 7,000 443 Climbing Chicago Center
Fri 11:15:36 PM 41.8764 -86.8542 42° Northeast 168 193 7,000  Level Chicago Center
Fri 11:16:38 PM 41.9103 -86.8083 45° Northeast 173 199 7,000  Level Chicago Center
Fri 11:17:39 PM 41.9433 -86.7650 44° Northeast 170 196 7,000  Level Chicago Center
Fri 11:18:40 PM 41.9781 -86.7242 41° Northeast 168 193 7,000  Level Chicago Center
Fri 11:19:41 PM 42.0144 -86.6794 42° Northeast 170 196 7,000  Level Chicago Center
Fri 11:20:42 PM 42.0478 -86.6375 43° Northeast 166 191 7,000  Level Chicago Center
Fri 11:21:43 PM 42.0811 -86.5936 44° Northeast 168 193 7,000  Level Chicago Center
Fri 11:22:44 PM 42.1147 -86.5506 44° Northeast 167 192 7,000  Level Chicago Center
Fri 11:23:46 PM 42.1558 -86.5003 42° Northeast 166 191 7,000  Level Chicago Center
Fri 11:24:47 PM 42.1903 -86.4581 42° Northeast 167 192 7,000  Level Chicago Center
Fri 11:25:48 PM 42.2247 -86.4150 43° Northeast 169 194 7,000  Level Chicago Center
Fri 11:26:49 PM 42.2572 -86.3719 44° Northeast 166 191 7,000  Level Chicago Center
Fri 11:27:50 PM 42.2917 -86.3261 45° Northeast 171 197 7,000  Level Chicago Center
Fri 11:28:51 PM 42.3236 -86.2861 43° Northeast 170 196 7,000  Level Chicago Center
Fri 11:29:52 PM 42.3567 -86.2431 44° Northeast 167 192 7,000  Level Chicago Center
Fri 11:30:53 PM 42.3889 -86.1986 46° Northeast 166 191 7,000 49 Level Chicago Center
Fri 11:31:54 PM 42.4286 -86.1456 45° Northeast 167 192 7,100  Climbing Chicago Center
Fri 11:32:55 PM 42.4600 -86.1008 46° Northeast 166 191 7,000 -49 Descending Chicago Center
Fri 11:33:56 PM 42.4931 -86.0539 46° Northeast 170 196 7,000  Level Chicago Center
Fri 11:34:57 PM 42.5264 -86.0103 44° Northeast 169 194 7,000 -49 Level Chicago Center
Fri 11:35:58 PM 42.5589 -85.9647 46° Northeast 169 194 6,900 -393 Descending Chicago Center
Fri 11:36:59 PM 42.5953 -85.9142 46° Northeast 180 207 6,200 -639 Descending Chicago Center
Fri 11:38:00 PM 42.6356 -85.8622 43° Northeast 195 224 5,600 -639 Descending Chicago Center
Fri 11:39:01 PM 42.6725 -85.8081 47° Northeast 196 226 4,900 -689 Descending Chicago Center
Fri 11:40:02 PM 42.7094 -85.7517 48° Northeast 199 229 4,200 -689 Descending Chicago Center
Fri 11:41:03 PM 42.7497 -85.6969 45° Northeast 204 235 3,500 -689 Descending Chicago Center
Fri 11:42:04 PM 42.7983 -85.6344 43° Northeast 203 234 2,800 -689 Descending Chicago Center
Fri 11:43:05 PM 42.8356 -85.5817 46° Northeast 199 229 2,100 -443 Descending Chicago Center
Fri 11:44:06 PM 42.8547 -85.5189 67° East 193 222 1,900 -295 Descending Chicago Center
Fri 11:45:07 PM 42.8739 -85.4769 58° Northeast 165 190 1,500 -492 Descending Chicago Center
Fri 11:46:08 PM 42.8800 -85.5069 286° West 130 150 900 -590 Descending Chicago Center
Fri 11:48:00 PM 42.8667 -85.5167 56° Northeast  Level FlightAware Approximate

Login

Don't have an account? Register now (free) for customized features, flight alerts, and more!